Portada
METAR-TAF:

METAR-TAF

Aeropuertos :

Ferrara, Italia

latitud: 44-50N, longitud: 011-37E, altitud: 10 m

Observación

El informe se hizo hace 26 minutos, a las 06:55 UTC
Viento 2 kt del oeste-suroeste
Temperatura 6°C
Humedad 87%
Presión 1032 hPa
Visibilidad 10 km o más
sin nubes por debajo de 1500 m y sin presencia de cumulonimbus.

METAR: LIPF 250655Z 24002KT CAVOK 06/04 Q1032 RMK SKC VIS MIN 9999

Hora: 08:21 (07:21 UTC)


TAF: falta

Observaciones y pronósticos meteorológicos de más de 4000 aeropuertos (mensajes METAR y TAF).

Los puntos amarillos y rojos representan las estaciones disponibles.

Ponga el ratón en el punto deseado para ver el nombre de la estación.

Haga clic para ver las observaciones y los pronósticos meteorológicos.

Para cambiar el mapa : haga clic en los botones verdes con una cruz de color negro para hacer un zoom, en el botón verde con un guión para alejar o en las flechas verdes para mapas adyacentes.


METAR-TAF: